createdAt,value
2022-10-25T00:00:07.681Z,0.50
2022-10-25T00:01:25.020Z,0.57
2022-10-25T00:02:30.709Z,0.37
2022-10-25T00:03:32.482Z,0.63
2022-10-25T00:04:34.200Z,0.60
2022-10-25T00:05:36.724Z,0.50
2022-10-25T00:06:38.481Z,0.70
2022-10-25T00:07:40.311Z,0.67
2022-10-25T00:08:42.313Z,0.60
2022-10-25T00:09:44.056Z,0.43
2022-10-25T00:10:45.766Z,0.60
2022-10-25T00:11:47.555Z,0.60
2022-10-25T00:12:50.236Z,0.63
2022-10-25T00:13:55.907Z,0.50
2022-10-25T00:15:01.986Z,0.50
2022-10-25T00:16:03.978Z,0.83
2022-10-25T00:17:05.714Z,0.67
2022-10-25T00:18:07.435Z,0.80
2022-10-25T00:19:11.693Z,0.70
2022-10-25T00:20:13.967Z,0.60
2022-10-25T00:21:15.759Z,0.63
2022-10-25T00:22:17.637Z,0.73
2022-10-25T00:23:19.523Z,0.40
2022-10-25T00:24:21.273Z,0.70
2022-10-25T00:25:23.013Z,0.40
2022-10-25T00:26:25.024Z,0.90
2022-10-25T00:27:27.098Z,0.60
2022-10-25T00:28:28.891Z,0.50
2022-10-25T00:29:32.055Z,0.60
2022-10-25T00:30:34.216Z,0.50
2022-10-25T00:31:38.270Z,0.77
2022-10-25T00:32:40.097Z,0.83
2022-10-25T00:33:43.827Z,0.73
2022-10-25T00:34:45.781Z,0.80
2022-10-25T00:35:47.479Z,0.40
2022-10-25T00:36:49.212Z,0.50
2022-10-25T00:37:51.480Z,0.70
2022-10-25T00:38:56.943Z,0.53
2022-10-25T00:39:59.060Z,0.57
2022-10-25T00:41:01.745Z,0.50
2022-10-25T00:42:04.186Z,0.63
2022-10-25T00:43:08.199Z,0.40
2022-10-25T00:44:41.213Z,0.50
2022-10-25T00:45:43.017Z,0.43
2022-10-25T00:46:45.779Z,0.50
2022-10-25T00:48:10.790Z,0.63
2022-10-25T00:49:20.558Z,0.50
2022-10-25T00:50:32.708Z,0.60
2022-10-25T00:51:41.563Z,0.30
2022-10-25T00:52:50.459Z,0.50
2022-10-25T00:53:52.748Z,0.60
2022-10-25T00:54:55.005Z,0.50
2022-10-25T00:56:15.126Z,0.60
2022-10-25T00:57:27.432Z,0.60
2022-10-25T00:58:35.583Z,0.80
2022-10-25T00:59:38.979Z,0.60
2022-10-25T01:00:41.185Z,0.50
2022-10-25T01:01:43.513Z,0.57
2022-10-25T01:02:45.986Z,0.60
2022-10-25T01:03:52.193Z,0.70
2022-10-25T01:04:54.686Z,0.43
2022-10-25T01:05:59.584Z,0.77
2022-10-25T01:07:02.691Z,0.47
2022-10-25T01:08:05.982Z,0.50
2022-10-25T01:09:13.654Z,0.57
2022-10-25T01:10:15.988Z,0.40
2022-10-25T01:11:19.157Z,0.60
2022-10-25T01:12:20.887Z,0.43
2022-10-25T01:13:22.840Z,0.60
2022-10-25T01:14:24.630Z,0.70
2022-10-25T01:15:39.645Z,0.50
2022-10-25T01:17:03.801Z,0.50
2022-10-25T01:18:32.887Z,0.60
2022-10-25T01:20:05.368Z,0.67
2022-10-25T01:21:48.279Z,0.50
2022-10-25T01:23:20.290Z,0.60
2022-10-25T01:24:37.264Z,0.50
2022-10-25T01:26:09.741Z,0.60
2022-10-25T01:28:14.059Z,0.70
2022-10-25T01:29:51.411Z,0.53
2022-10-25T01:31:19.141Z,0.67
2022-10-25T01:32:31.085Z,0.97
2022-10-25T01:33:48.343Z,0.57
2022-10-25T01:35:38.048Z,0.70
2022-10-25T01:37:00.917Z,0.60
2022-10-25T01:38:13.353Z,0.70
2022-10-25T01:39:26.323Z,0.67
2022-10-25T01:40:59.675Z,0.47
2022-10-25T01:42:07.543Z,0.83
2022-10-25T01:43:28.895Z,0.67
2022-10-25T01:44:58.368Z,0.70
2022-10-25T01:46:15.606Z,0.50
2022-10-25T01:47:37.890Z,0.63
2022-10-25T01:48:51.030Z,0.90
2022-10-25T01:50:00.609Z,0.57
2022-10-25T01:51:12.436Z,0.80
2022-10-25T01:52:19.655Z,0.50
2022-10-25T01:53:21.358Z,0.70
2022-10-25T01:54:25.831Z,0.50
2022-10-25T01:55:57.065Z,0.60
2022-10-25T01:57:11.266Z,0.77
2022-10-25T01:58:34.940Z,0.67
2022-10-25T02:00:09.793Z,0.50
2022-10-25T02:03:27.985Z,0.70
2022-10-25T02:04:40.103Z,0.70
2022-10-25T02:06:06.324Z,0.90
2022-10-25T02:07:23.385Z,0.90
2022-10-25T02:08:40.844Z,0.90
2022-10-25T02:10:03.215Z,0.70
2022-10-25T02:11:22.900Z,0.73
2022-10-25T02:12:43.109Z,1.03
2022-10-25T02:14:21.521Z,0.60
2022-10-25T02:16:15.330Z,0.80
2022-10-25T02:17:22.984Z,1.07
2022-10-25T02:19:37.223Z,0.80
2022-10-25T02:20:45.952Z,0.73
2022-10-25T02:21:52.210Z,0.70
2022-10-25T02:22:57.413Z,0.97
2022-10-25T02:24:04.965Z,0.87
2022-10-25T02:25:11.352Z,0.90
2022-10-25T02:26:15.052Z,0.77
2022-10-25T02:27:20.366Z,1.00
2022-10-25T02:28:26.736Z,1.00
2022-10-25T02:29:33.842Z,1.10
2022-10-25T02:30:39.549Z,0.80
2022-10-25T02:31:41.966Z,0.80
2022-10-25T02:32:44.027Z,0.70
2022-10-25T02:33:47.782Z,0.90
2022-10-25T02:34:50.539Z,0.60
2022-10-25T02:36:12.488Z,0.70
2022-10-25T02:37:14.188Z,0.63
2022-10-25T02:38:15.941Z,0.83
2022-10-25T02:39:20.480Z,0.60
2022-10-25T02:40:23.024Z,0.70
2022-10-25T02:41:24.964Z,0.90
2022-10-25T02:45:39.144Z,0.93
2022-10-25T02:46:40.935Z,0.70
2022-10-25T02:47:42.632Z,0.93
2022-10-25T02:48:45.382Z,0.80
2022-10-25T02:49:47.260Z,0.90
2022-10-25T02:50:49.446Z,0.70
2022-10-25T02:52:57.823Z,0.50
2022-10-25T02:53:59.602Z,0.67
2022-10-25T02:55:01.315Z,1.10
2022-10-25T02:56:08.016Z,0.77
2022-10-25T02:57:09.731Z,0.87
2022-10-25T02:58:11.426Z,0.83
2022-10-25T02:59:13.263Z,0.80
2022-10-25T03:00:15.586Z,0.77
2022-10-25T03:01:19.382Z,0.83
2022-10-25T03:02:21.173Z,0.70
2022-10-25T03:03:22.907Z,0.90
2022-10-25T03:04:24.708Z,0.90
2022-10-25T03:05:26.429Z,1.47
2022-10-25T03:06:28.780Z,1.00
2022-10-25T03:07:30.533Z,0.70
2022-10-25T03:08:32.709Z,0.80
2022-10-25T03:09:34.413Z,0.73
2022-10-25T03:10:37.805Z,0.90
2022-10-25T03:11:39.539Z,0.67
2022-10-25T03:12:41.343Z,0.80
2022-10-25T03:13:43.200Z,1.00
2022-10-25T03:14:44.910Z,1.10
2022-10-25T03:15:47.287Z,0.90
2022-10-25T03:16:49.049Z,0.90
2022-10-25T03:17:50.777Z,0.97
2022-10-25T03:18:52.473Z,1.00
2022-10-25T03:19:54.171Z,0.90
2022-10-25T03:21:01.615Z,0.77
2022-10-25T03:22:03.525Z,0.90
2022-10-25T03:23:05.323Z,1.10
2022-10-25T03:24:07.716Z,1.00
2022-10-25T03:26:16.352Z,0.90
2022-10-25T03:27:18.053Z,0.90
2022-10-25T03:28:19.785Z,1.10
2022-10-25T03:29:21.491Z,0.80
2022-10-25T03:30:23.296Z,1.10
2022-10-25T03:31:25.140Z,0.80
2022-10-25T03:32:26.892Z,0.90
2022-10-25T03:33:28.686Z,0.77
2022-10-25T03:34:30.420Z,1.17
2022-10-25T03:35:32.195Z,1.00
2022-10-25T03:36:33.900Z,0.90
2022-10-25T03:37:35.702Z,0.90
2022-10-25T03:38:37.421Z,1.00
2022-10-25T03:39:39.107Z,1.03
2022-10-25T03:40:41.812Z,0.90
2022-10-25T03:41:43.582Z,0.77
2022-10-25T03:42:45.618Z,1.00
2022-10-25T03:43:47.359Z,1.00
2022-10-25T03:44:49.199Z,1.20
2022-10-25T03:45:51.204Z,1.00
2022-10-25T03:46:52.971Z,1.27
2022-10-25T03:47:54.720Z,1.10
2022-10-25T03:48:56.533Z,1.07
2022-10-25T03:49:58.391Z,1.30
2022-10-25T03:51:00.529Z,1.10
2022-10-25T03:52:04.214Z,0.80
2022-10-25T03:54:09.241Z,0.90
2022-10-25T03:55:11.322Z,1.13
2022-10-25T03:56:13.096Z,0.97
2022-10-25T03:57:14.824Z,1.10
2022-10-25T03:58:17.467Z,0.90
2022-10-25T03:59:19.148Z,0.97
2022-10-25T04:00:20.994Z,1.13
2022-10-25T04:01:22.810Z,0.97
2022-10-25T04:02:24.689Z,1.00
2022-10-25T04:03:26.445Z,1.10
2022-10-25T04:04:28.172Z,1.40
2022-10-25T04:05:31.754Z,1.30
2022-10-25T04:06:33.478Z,1.00
2022-10-25T04:07:35.197Z,1.10
2022-10-25T04:08:38.353Z,1.10
2022-10-25T04:09:40.132Z,1.00
2022-10-25T04:10:41.942Z,1.00
2022-10-25T04:11:43.671Z,1.10
2022-10-25T04:12:46.674Z,1.53
2022-10-25T04:13:48.512Z,1.20
2022-10-25T04:14:50.272Z,1.00
2022-10-25T04:15:52.006Z,1.20
2022-10-25T04:16:53.740Z,1.10
2022-10-25T04:17:55.472Z,0.93
2022-10-25T04:18:58.985Z,0.87
2022-10-25T04:20:00.720Z,1.00
2022-10-25T04:21:02.858Z,1.00
2022-10-25T04:22:04.767Z,1.07
2022-10-25T04:23:06.519Z,1.00
2022-10-25T04:24:08.884Z,1.07
2022-10-25T04:25:10.635Z,1.10
2022-10-25T04:26:17.220Z,1.17
2022-10-25T04:27:18.929Z,0.90
2022-10-25T04:28:20.612Z,0.93
2022-10-25T04:29:22.945Z,1.20
2022-10-25T04:30:24.688Z,0.93
2022-10-25T04:31:26.425Z,1.13
2022-10-25T04:32:28.154Z,1.10
2022-10-25T04:33:29.892Z,1.10
2022-10-25T04:34:31.630Z,1.00
2022-10-25T04:35:33.372Z,1.10
2022-10-25T04:36:35.096Z,1.30
2022-10-25T04:37:37.015Z,1.53
2022-10-25T04:38:38.703Z,1.00
2022-10-25T04:39:40.475Z,0.70
2022-10-25T04:40:42.152Z,1.30
2022-10-25T04:41:43.901Z,1.10
2022-10-25T04:42:45.837Z,1.10
2022-10-25T04:43:48.759Z,1.03
2022-10-25T04:44:50.494Z,1.17
2022-10-25T04:45:52.705Z,0.90
2022-10-25T04:46:54.441Z,1.07
2022-10-25T04:47:56.933Z,1.37
2022-10-25T04:48:58.732Z,1.70
2022-10-25T04:50:00.628Z,1.30
2022-10-25T04:51:02.410Z,1.40
2022-10-25T04:52:04.232Z,1.10
2022-10-25T04:53:06.381Z,1.40
2022-10-25T04:54:08.133Z,1.30
2022-10-25T04:55:09.925Z,1.30
2022-10-25T04:56:16.614Z,1.23
2022-10-25T04:57:18.330Z,1.30
2022-10-25T04:58:20.982Z,1.30
2022-10-25T04:59:22.739Z,1.10
2022-10-25T05:00:25.761Z,1.23
2022-10-25T05:01:27.539Z,1.40
2022-10-25T05:02:29.450Z,1.10
2022-10-25T05:03:32.510Z,1.10
2022-10-25T05:04:34.262Z,1.30
2022-10-25T05:05:35.980Z,1.30
2022-10-25T05:06:37.788Z,1.30
2022-10-25T05:07:39.552Z,1.17
2022-10-25T05:08:47.856Z,1.30
2022-10-25T05:09:49.629Z,1.40
2022-10-25T05:10:55.072Z,1.27
2022-10-25T05:11:56.810Z,0.93
2022-10-25T05:12:58.514Z,1.20
2022-10-25T05:14:00.253Z,1.10
2022-10-25T05:15:01.989Z,1.58
2022-10-25T05:16:04.837Z,1.33
2022-10-25T05:17:06.556Z,1.30
2022-10-25T05:18:08.243Z,1.47
2022-10-25T05:19:09.980Z,1.60
2022-10-25T05:20:11.739Z,1.20
2022-10-25T05:21:15.138Z,1.10
2022-10-25T05:22:16.942Z,1.27
2022-10-25T05:23:18.765Z,1.40
2022-10-25T05:24:20.624Z,1.17
2022-10-25T05:25:22.500Z,1.20
2022-10-25T05:26:24.257Z,1.50
2022-10-25T05:27:25.967Z,1.47
2022-10-25T05:28:27.723Z,1.13
2022-10-25T05:29:29.571Z,1.47
2022-10-25T05:30:31.274Z,1.10
2022-10-25T05:31:32.990Z,1.50
2022-10-25T05:32:34.962Z,1.27
2022-10-25T05:33:36.675Z,1.30
2022-10-25T05:34:38.472Z,1.30
2022-10-25T05:35:40.176Z,1.27
2022-10-25T05:36:42.150Z,1.10
2022-10-25T05:37:43.869Z,1.63
2022-10-25T05:38:46.419Z,1.40
2022-10-25T05:39:48.137Z,1.13
2022-10-25T05:40:55.940Z,1.37
2022-10-25T05:41:58.756Z,1.30
2022-10-25T05:43:00.504Z,1.33
2022-10-25T05:44:02.246Z,1.13
2022-10-25T05:45:04.394Z,1.37
2022-10-25T05:46:09.185Z,1.10
2022-10-25T05:47:12.324Z,1.30
2022-10-25T05:48:14.127Z,1.40
2022-10-25T05:49:15.870Z,1.70
2022-10-25T05:50:17.575Z,1.50
2022-10-25T05:51:42.125Z,1.40
2022-10-25T05:52:45.266Z,1.43
2022-10-25T05:53:53.680Z,1.20
2022-10-25T05:54:55.380Z,1.23
2022-10-25T05:56:00.297Z,1.47
2022-10-25T05:57:02.023Z,1.43
2022-10-25T05:58:04.513Z,1.40
2022-10-25T05:59:10.777Z,1.30
2022-10-25T06:00:13.428Z,1.53
2022-10-25T06:01:19.972Z,1.33
2022-10-25T06:02:21.930Z,1.47
2022-10-25T06:03:23.745Z,1.47
2022-10-25T06:04:25.514Z,1.13
2022-10-25T06:05:27.412Z,1.40
2022-10-25T06:06:30.186Z,1.52
2022-10-25T06:07:31.901Z,1.33
2022-10-25T06:08:34.237Z,1.30
2022-10-25T06:09:35.941Z,1.50
2022-10-25T06:10:37.769Z,1.53
2022-10-25T06:11:40.664Z,1.40
2022-10-25T06:12:42.388Z,1.40
2022-10-25T06:13:44.434Z,1.60
2022-10-25T06:14:46.141Z,1.30
2022-10-25T06:15:47.941Z,1.53
2022-10-25T06:16:49.759Z,1.60
2022-10-25T06:17:51.449Z,1.33
2022-10-25T06:18:54.291Z,1.73
2022-10-25T06:19:56.012Z,1.37
2022-10-25T06:21:06.202Z,1.40
2022-10-25T06:22:07.977Z,1.30
2022-10-25T06:23:11.145Z,1.60
2022-10-25T06:24:13.131Z,1.87
2022-10-25T06:25:14.920Z,1.70
2022-10-25T06:26:29.493Z,1.53
2022-10-25T06:27:31.193Z,1.40
2022-10-25T06:28:34.044Z,1.40
2022-10-25T06:29:35.813Z,1.80
2022-10-25T06:30:37.626Z,1.40
2022-10-25T06:31:41.535Z,1.53
2022-10-25T06:32:43.365Z,1.50
2022-10-25T06:33:46.216Z,1.67
2022-10-25T06:34:48.055Z,1.50
2022-10-25T06:35:56.118Z,1.53
2022-10-25T06:36:57.834Z,1.57
2022-10-25T06:38:03.448Z,1.70
2022-10-25T06:39:06.713Z,1.43
2022-10-25T06:40:09.792Z,1.80
2022-10-25T06:41:17.648Z,1.40
2022-10-25T06:42:19.427Z,1.80
2022-10-25T06:43:21.140Z,1.63
2022-10-25T06:44:22.860Z,1.40
2022-10-25T06:45:24.881Z,1.30
2022-10-25T06:46:33.154Z,1.80
2022-10-25T06:47:34.943Z,1.53
2022-10-25T06:48:37.292Z,1.40
2022-10-25T06:49:39.074Z,1.80
2022-10-25T06:50:40.833Z,1.67
2022-10-25T06:51:42.540Z,1.50
2022-10-25T06:52:44.480Z,1.23
2022-10-25T06:53:46.503Z,1.20
2022-10-25T06:54:48.223Z,1.47
2022-10-25T06:55:49.937Z,1.57
2022-10-25T06:56:51.691Z,1.47
2022-10-25T06:57:57.153Z,1.70
2022-10-25T06:58:58.940Z,2.00
2022-10-25T07:01:15.011Z,1.30
2022-10-25T07:02:16.959Z,1.67
2022-10-25T07:03:18.776Z,1.33
2022-10-25T07:04:20.849Z,1.53
2022-10-25T07:05:23.132Z,1.57
2022-10-25T07:06:35.230Z,1.57
2022-10-25T07:07:36.981Z,1.70
2022-10-25T07:08:42.189Z,1.70
2022-10-25T07:09:43.970Z,1.33
2022-10-25T07:10:54.898Z,1.60
2022-10-25T07:11:56.663Z,1.40
2022-10-25T07:12:58.376Z,1.50
2022-10-25T07:14:02.246Z,1.27
2022-10-25T07:15:05.301Z,1.73
2022-10-25T07:16:10.335Z,1.63
2022-10-25T07:17:12.043Z,1.83
2022-10-25T07:18:13.770Z,1.53
2022-10-25T07:19:15.581Z,1.60
2022-10-25T07:20:17.367Z,1.80
2022-10-25T07:21:23.099Z,1.80
2022-10-25T07:22:25.706Z,1.30
2022-10-25T07:23:28.553Z,1.77
2022-10-25T07:24:31.098Z,1.50
2022-10-25T07:25:32.943Z,1.30
2022-10-25T07:26:35.780Z,1.77
2022-10-25T07:27:37.530Z,1.53
2022-10-25T07:28:40.327Z,1.70
2022-10-25T07:29:42.402Z,1.70
2022-10-25T07:30:48.722Z,2.00
2022-10-25T07:31:50.547Z,1.60
2022-10-25T07:32:52.267Z,1.70
2022-10-25T07:33:57.954Z,1.83
2022-10-25T07:34:59.705Z,1.50
2022-10-25T07:36:16.932Z,1.87
2022-10-25T07:37:18.634Z,1.40
2022-10-25T07:38:23.319Z,1.70
2022-10-25T07:39:27.635Z,1.47
2022-10-25T07:40:29.352Z,1.60
2022-10-25T07:41:31.160Z,1.70
2022-10-25T07:42:32.885Z,1.80
2022-10-25T07:43:34.865Z,2.60
2022-10-25T07:44:36.644Z,3.00
2022-10-25T07:45:39.117Z,2.93
2022-10-25T07:46:40.845Z,2.80
2022-10-25T07:47:42.550Z,2.33
2022-10-25T07:48:44.448Z,2.50
2022-10-25T07:49:46.210Z,2.43
2022-10-25T07:50:48.392Z,2.00
2022-10-25T07:51:50.152Z,2.23
2022-10-25T07:52:51.875Z,2.00
2022-10-25T07:53:53.988Z,2.20
2022-10-25T07:54:55.762Z,2.30
2022-10-25T07:55:57.522Z,2.10
2022-10-25T07:56:59.328Z,1.97
2022-10-25T07:58:07.421Z,1.33
2022-10-25T07:59:09.244Z,1.60
2022-10-25T08:00:11.608Z,1.30
2022-10-25T08:01:19.702Z,1.30
2022-10-25T08:02:25.433Z,1.30
2022-10-25T08:03:28.036Z,1.57
2022-10-25T08:04:32.682Z,1.40
2022-10-25T08:05:34.745Z,1.10
2022-10-25T08:06:36.514Z,1.17
2022-10-25T08:07:38.221Z,1.50
2022-10-25T08:08:40.030Z,1.50
2022-10-25T08:09:41.777Z,1.30
2022-10-25T08:10:44.456Z,1.23
2022-10-25T08:11:46.173Z,1.23
2022-10-25T08:12:49.841Z,1.23
2022-10-25T08:13:51.636Z,1.10
2022-10-25T08:14:53.353Z,1.90
2022-10-25T08:15:56.542Z,1.43
2022-10-25T08:16:58.263Z,1.23
2022-10-25T08:18:01.683Z,1.30
2022-10-25T08:19:03.444Z,1.30
2022-10-25T08:20:06.025Z,1.40
2022-10-25T08:21:07.928Z,1.67
2022-10-25T08:22:09.880Z,1.10
2022-10-25T08:23:11.774Z,1.57
2022-10-25T08:24:13.544Z,1.50
2022-10-25T08:25:15.411Z,1.43
2022-10-25T08:26:17.261Z,1.57
2022-10-25T08:27:18.985Z,1.80
2022-10-25T08:28:21.017Z,1.70
2022-10-25T08:29:22.741Z,2.10
2022-10-25T08:30:24.488Z,2.00
2022-10-25T08:31:26.211Z,1.40
2022-10-25T08:32:29.438Z,1.40
2022-10-25T08:33:33.262Z,1.37
2022-10-25T08:34:35.058Z,1.60
2022-10-25T08:35:36.809Z,1.47
2022-10-25T08:36:38.519Z,1.50
2022-10-25T08:37:40.214Z,1.37
2022-10-25T08:38:41.924Z,1.70
2022-10-25T08:39:44.532Z,1.20
2022-10-25T08:41:09.984Z,1.57
2022-10-25T08:42:26.878Z,1.50
2022-10-25T08:45:21.561Z,2.00
2022-10-25T08:47:04.874Z,1.73
2022-10-25T08:48:17.659Z,1.60
2022-10-25T08:49:41.666Z,1.50
2022-10-25T08:50:55.752Z,1.20
2022-10-25T08:52:00.541Z,1.80
2022-10-25T08:53:13.696Z,1.53
2022-10-25T08:54:39.311Z,1.27
2022-10-25T08:55:58.643Z,1.53
2022-10-25T08:57:23.750Z,1.70
2022-10-25T08:58:58.182Z,1.63
2022-10-25T09:00:10.432Z,1.60
2022-10-25T09:01:40.623Z,1.40
2022-10-25T09:02:58.383Z,1.60
2022-10-25T09:04:00.675Z,1.80
2022-10-25T09:05:02.654Z,1.43
2022-10-25T09:06:35.862Z,1.50
2022-10-25T09:08:32.468Z,1.73
2022-10-25T09:10:10.336Z,1.33
2022-10-25T09:12:07.615Z,1.20
2022-10-25T09:13:39.917Z,1.40
2022-10-25T09:14:47.591Z,1.30
2022-10-25T09:15:55.399Z,1.53
2022-10-25T09:17:21.330Z,2.07
2022-10-25T09:18:41.165Z,1.60
2022-10-25T09:20:06.303Z,1.33
2022-10-25T09:21:22.437Z,1.37
2022-10-25T09:22:36.836Z,1.20
2022-10-25T09:23:48.051Z,1.00
2022-10-25T09:25:05.742Z,1.17
2022-10-25T09:26:45.629Z,1.27
2022-10-25T09:28:15.944Z,0.83
2022-10-25T09:29:39.981Z,1.17
2022-10-25T09:30:44.421Z,1.10
2022-10-25T09:31:54.175Z,1.10
2022-10-25T09:33:02.881Z,0.90
2022-10-25T09:34:10.368Z,1.37
2022-10-25T09:35:51.530Z,1.20
2022-10-25T09:37:24.538Z,0.90
2022-10-25T09:38:44.042Z,1.13
2022-10-25T09:40:04.967Z,1.07
2022-10-25T09:41:37.211Z,1.20
2022-10-25T09:43:00.978Z,1.00
2022-10-25T09:44:36.992Z,1.10
2022-10-25T09:45:49.162Z,1.00
2022-10-25T09:47:28.479Z,0.80
2022-10-25T09:48:39.522Z,1.10
2022-10-25T09:49:51.907Z,1.60
2022-10-25T09:51:13.368Z,1.00
2022-10-25T09:52:39.913Z,0.90
2022-10-25T09:53:45.862Z,0.83
2022-10-25T09:54:55.109Z,0.90
2022-10-25T09:56:03.391Z,2.27
2022-10-25T09:57:05.456Z,1.50
2022-10-25T09:58:33.935Z,1.10
2022-10-25T09:59:35.729Z,0.97
2022-10-25T10:00:40.363Z,1.10
2022-10-25T10:01:43.248Z,1.30
2022-10-25T10:02:45.305Z,1.20
2022-10-25T10:03:50.860Z,1.20
2022-10-25T10:04:56.093Z,1.03
2022-10-25T10:06:03.036Z,1.30
2022-10-25T10:07:23.750Z,0.97
2022-10-25T10:08:27.159Z,1.47
2022-10-25T10:09:32.172Z,1.10
2022-10-25T10:10:35.935Z,1.20
2022-10-25T10:11:39.544Z,1.20
2022-10-25T10:13:11.657Z,1.30
2022-10-25T10:14:40.264Z,0.67
2022-10-25T10:15:55.219Z,1.10
2022-10-25T10:16:59.633Z,1.20
2022-10-25T10:18:24.406Z,1.10
2022-10-25T10:19:29.978Z,1.20
2022-10-25T10:20:31.839Z,1.20
2022-10-25T10:21:36.381Z,1.00
2022-10-25T10:22:53.174Z,0.97
2022-10-25T10:24:05.323Z,1.20
2022-10-25T10:25:20.360Z,1.07
2022-10-25T10:26:35.460Z,1.10
2022-10-25T10:27:37.295Z,0.83
2022-10-25T10:28:46.701Z,1.30
2022-10-25T10:30:09.163Z,0.90
2022-10-25T10:31:11.477Z,0.90
2022-10-25T10:32:43.720Z,1.10
2022-10-25T10:33:52.022Z,1.00
2022-10-25T10:34:57.501Z,1.30
2022-10-25T10:36:27.984Z,1.27
2022-10-25T10:37:32.737Z,1.10
2022-10-25T10:38:34.467Z,1.40
2022-10-25T10:39:47.990Z,1.17
2022-10-25T10:40:53.283Z,1.00
2022-10-25T10:42:11.622Z,1.30
2022-10-25T10:43:32.386Z,1.23
2022-10-25T10:44:34.753Z,1.20
2022-10-25T10:45:36.695Z,1.13
2022-10-25T10:46:46.220Z,1.30
2022-10-25T10:47:50.850Z,1.20
2022-10-25T10:48:58.835Z,1.13
2022-10-25T10:50:01.952Z,1.10
2022-10-25T10:51:06.578Z,1.30
2022-10-25T10:52:36.318Z,1.57
2022-10-25T10:53:38.091Z,1.43
2022-10-25T10:54:48.084Z,1.10
2022-10-25T10:55:54.726Z,1.10
2022-10-25T10:57:03.492Z,0.87
2022-10-25T10:58:31.551Z,1.03
2022-10-25T10:59:35.445Z,1.10
2022-10-25T11:00:37.230Z,1.57
2022-10-25T11:01:39.136Z,0.80
2022-10-25T11:02:42.197Z,0.83
2022-10-25T11:03:58.785Z,1.00
2022-10-25T11:05:01.238Z,0.70
2022-10-25T11:06:05.775Z,1.20
2022-10-25T11:07:25.815Z,1.00
2022-10-25T11:08:27.776Z,0.80
2022-10-25T11:09:29.651Z,0.77
2022-10-25T11:10:37.091Z,0.80
2022-10-25T11:11:40.244Z,0.73
2022-10-25T11:12:43.417Z,1.00
2022-10-25T11:13:56.751Z,0.80
2022-10-25T11:14:58.463Z,1.17
2022-10-25T11:16:52.881Z,0.90
2022-10-25T11:18:04.974Z,0.90
2022-10-25T11:19:31.175Z,1.10
2022-10-25T11:20:52.063Z,1.00
2022-10-25T11:21:53.686Z,1.20
2022-10-25T11:23:44.311Z,1.10
2022-10-25T11:24:57.935Z,1.00
2022-10-25T11:26:31.416Z,1.00
2022-10-25T11:27:54.217Z,1.50
2022-10-25T11:29:10.797Z,1.67
2022-10-25T11:30:24.424Z,1.20
2022-10-25T11:32:01.924Z,1.17
2022-10-25T11:33:37.235Z,1.05
2022-10-25T11:35:00.608Z,1.00
2022-10-25T11:36:33.084Z,0.70
2022-10-25T11:38:02.871Z,0.82
2022-10-25T11:39:40.690Z,1.00
2022-10-25T11:41:13.868Z,0.98
2022-10-25T11:43:06.415Z,1.00
2022-10-25T11:45:00.334Z,0.50
2022-10-25T11:46:23.455Z,0.52
2022-10-25T11:48:17.051Z,1.23
2022-10-25T11:49:56.880Z,0.73
2022-10-25T11:51:19.464Z,0.90
2022-10-25T11:53:16.031Z,0.80
2022-10-25T11:54:40.842Z,1.00
2022-10-25T11:56:04.555Z,0.80
2022-10-25T11:57:15.031Z,1.10
2022-10-25T11:58:33.663Z,0.90
2022-10-25T11:59:40.822Z,0.82
2022-10-25T12:01:30.402Z,0.93
2022-10-25T12:03:00.698Z,0.98
2022-10-25T12:04:20.295Z,1.00
2022-10-25T12:05:43.067Z,0.70
2022-10-25T12:07:15.545Z,0.68
2022-10-25T12:08:47.382Z,0.70
2022-10-25T12:10:07.266Z,1.25
2022-10-25T12:11:18.905Z,1.13
2022-10-25T12:12:39.374Z,1.50
2022-10-25T12:13:51.389Z,4.30
2022-10-25T12:14:59.472Z,3.40
2022-10-25T12:16:05.084Z,1.98
2022-10-25T12:17:28.170Z,1.33
2022-10-25T12:18:41.570Z,1.20
2022-10-25T12:19:48.151Z,1.00
2022-10-25T12:20:52.416Z,1.38
2022-10-25T12:22:08.560Z,1.10
2022-10-25T12:23:17.246Z,1.00
2022-10-25T12:24:26.538Z,0.82
2022-10-25T12:25:40.043Z,0.73
2022-10-25T12:26:43.364Z,0.95
2022-10-25T12:27:55.821Z,0.68
2022-10-25T12:29:05.409Z,0.80
2022-10-25T12:30:16.767Z,0.85
2022-10-25T12:31:27.311Z,0.70
2022-10-25T12:32:43.294Z,0.90
2022-10-25T12:34:15.842Z,0.77
2022-10-25T12:35:33.659Z,0.73
2022-10-25T12:36:44.945Z,1.00
2022-10-25T12:37:59.131Z,1.02
2022-10-25T12:39:13.875Z,0.52
2022-10-25T12:40:20.444Z,0.93
2022-10-25T12:41:32.494Z,1.00
2022-10-25T12:43:12.202Z,0.80
2022-10-25T12:44:51.102Z,1.45
2022-10-25T12:46:21.977Z,0.97
2022-10-25T12:47:47.626Z,0.90
2022-10-25T12:49:10.966Z,0.77
2022-10-25T12:50:33.800Z,0.83
2022-10-25T12:52:05.016Z,0.90
2022-10-25T12:53:48.923Z,0.90
2022-10-25T12:55:21.618Z,0.90
2022-10-25T12:57:01.004Z,0.70
2022-10-25T12:58:49.532Z,0.70
2022-10-25T13:02:06.275Z,1.10
2022-10-25T13:03:41.207Z,0.83
2022-10-25T13:05:50.643Z,0.87
2022-10-25T13:06:53.752Z,0.70
2022-10-25T13:08:00.542Z,1.07
2022-10-25T13:09:16.362Z,1.07
2022-10-25T13:12:06.143Z,0.70
2022-10-25T13:13:22.724Z,0.93
2022-10-25T13:14:38.329Z,0.87
2022-10-25T13:15:51.689Z,0.67
2022-10-25T13:17:16.468Z,0.90
2022-10-25T13:18:47.774Z,1.00
2022-10-25T13:19:55.000Z,1.03
2022-10-25T13:21:02.804Z,1.00
2022-10-25T13:22:25.627Z,0.60
2022-10-25T13:23:42.616Z,1.30
2022-10-25T13:24:45.796Z,0.90
2022-10-25T13:25:47.418Z,0.93
2022-10-25T13:27:13.925Z,0.80
2022-10-25T13:28:15.645Z,1.00
2022-10-25T13:30:07.605Z,1.20
2022-10-25T13:31:34.087Z,1.00
2022-10-25T13:32:41.560Z,0.80
2022-10-25T13:33:43.369Z,0.97
2022-10-25T13:34:45.656Z,0.93
2022-10-25T13:35:50.562Z,1.00
2022-10-25T13:36:55.785Z,0.60
2022-10-25T13:38:26.309Z,1.13
2022-10-25T13:39:36.525Z,1.00
2022-10-25T13:40:38.511Z,1.10
2022-10-25T13:41:47.700Z,0.90
2022-10-25T13:43:01.664Z,0.87
2022-10-25T13:44:05.494Z,0.77
2022-10-25T13:45:19.207Z,0.90
2022-10-25T13:46:29.935Z,0.67
2022-10-25T13:47:41.397Z,1.30
2022-10-25T13:48:43.692Z,1.23
2022-10-25T13:49:48.320Z,0.90
2022-10-25T13:51:01.042Z,0.90
2022-10-25T13:52:22.514Z,0.70
2022-10-25T13:53:37.618Z,1.20
2022-10-25T13:54:55.006Z,0.97
2022-10-25T13:56:16.452Z,1.00
2022-10-25T13:57:50.407Z,1.10
2022-10-25T13:58:57.647Z,0.70
2022-10-25T14:00:02.102Z,0.73
2022-10-25T14:01:15.919Z,1.10
2022-10-25T14:02:21.070Z,1.20
2022-10-25T14:04:01.628Z,1.03
2022-10-25T14:05:03.476Z,1.10
2022-10-25T14:06:27.458Z,1.33
2022-10-25T14:07:47.849Z,1.43
2022-10-25T14:09:19.327Z,0.97
2022-10-25T14:10:33.060Z,0.70
2022-10-25T14:12:11.964Z,1.60
2022-10-25T14:13:26.149Z,0.97
2022-10-25T14:14:36.223Z,0.83
2022-10-25T14:15:50.053Z,1.00
2022-10-25T14:17:21.495Z,1.10
2022-10-25T14:18:25.628Z,1.10
2022-10-25T14:19:48.060Z,1.00
2022-10-25T14:21:05.210Z,0.70
2022-10-25T14:22:17.209Z,0.70
2022-10-25T14:23:24.098Z,1.17
2022-10-25T14:24:26.045Z,0.93
2022-10-25T14:25:40.678Z,0.60
2022-10-25T14:26:58.583Z,0.67
2022-10-25T14:28:27.762Z,0.97
2022-10-25T14:29:30.029Z,1.10
2022-10-25T14:30:41.992Z,0.73
2022-10-25T14:31:43.716Z,0.60
2022-10-25T14:33:03.668Z,1.10
2022-10-25T14:34:18.049Z,1.10
2022-10-25T14:35:21.642Z,0.97
2022-10-25T14:36:29.567Z,0.50
2022-10-25T14:37:31.312Z,0.97
2022-10-25T14:38:54.751Z,1.00
2022-10-25T14:39:56.497Z,0.77
2022-10-25T14:41:10.025Z,1.00
2022-10-25T14:42:18.401Z,0.87
2022-10-25T14:43:30.839Z,0.80
2022-10-25T14:44:48.992Z,0.97
2022-10-25T14:46:02.722Z,0.80
2022-10-25T14:47:04.454Z,0.80
2022-10-25T14:48:10.323Z,1.20
2022-10-25T14:49:12.127Z,0.90
2022-10-25T14:50:15.209Z,0.90
2022-10-25T14:51:44.562Z,0.90
2022-10-25T14:52:49.823Z,0.80
2022-10-25T14:54:33.685Z,0.97
2022-10-25T14:55:35.622Z,0.73
2022-10-25T14:56:45.834Z,1.00
2022-10-25T14:57:48.271Z,0.80
2022-10-25T14:58:50.850Z,0.97
2022-10-25T15:00:01.229Z,0.90
2022-10-25T15:01:04.711Z,0.90
2022-10-25T15:02:28.473Z,0.90
2022-10-25T15:03:31.306Z,0.80
2022-10-25T15:04:39.375Z,1.00
2022-10-25T15:05:41.433Z,0.70
2022-10-25T15:06:43.509Z,0.90
2022-10-25T15:07:47.078Z,0.97
2022-10-25T15:08:52.337Z,0.73
2022-10-25T15:10:00.805Z,0.57
2022-10-25T15:11:09.569Z,0.90
2022-10-25T15:12:12.127Z,0.80
2022-10-25T15:13:27.261Z,0.83
2022-10-25T15:14:31.045Z,1.10
2022-10-25T15:15:37.182Z,1.00
2022-10-25T15:16:40.999Z,0.80
2022-10-25T15:17:51.685Z,0.70
2022-10-25T15:19:09.399Z,0.93
2022-10-25T15:20:14.283Z,1.00
2022-10-25T15:21:18.214Z,0.93
2022-10-25T15:22:19.935Z,0.87
2022-10-25T15:23:21.794Z,0.80
2022-10-25T15:24:28.163Z,0.70
2022-10-25T15:25:33.199Z,0.80
2022-10-25T15:26:38.167Z,1.00
2022-10-25T15:27:42.784Z,1.00
2022-10-25T15:28:55.786Z,1.07
2022-10-25T15:29:57.576Z,0.63
2022-10-25T15:31:07.207Z,0.90
2022-10-25T15:32:27.555Z,1.00
2022-10-25T15:33:32.016Z,0.90
2022-10-25T15:34:33.777Z,0.87
2022-10-25T15:35:50.163Z,0.73
2022-10-25T15:36:51.951Z,0.90
2022-10-25T15:37:55.600Z,0.97
2022-10-25T15:39:11.731Z,1.17
2022-10-25T15:40:17.923Z,0.67